sensor_id;sensor_type;location;lat;lon;timestamp;temperature;humidity
21944;DHT22;11136;48.778;9.126;2023-02-28T00:01:28;2.40;71.20
21944;DHT22;11136;48.778;9.126;2023-02-28T00:03:54;2.60;71.40
21944;DHT22;11136;48.778;9.126;2023-02-28T00:06:19;2.30;71.30
21944;DHT22;11136;48.778;9.126;2023-02-28T00:08:46;2.30;71.40
21944;DHT22;11136;48.778;9.126;2023-02-28T00:11:13;2.30;71.50
21944;DHT22;11136;48.778;9.126;2023-02-28T00:13:41;2.30;71.60
21944;DHT22;11136;48.778;9.126;2023-02-28T00:16:11;2.20;71.70
21944;DHT22;11136;48.778;9.126;2023-02-28T00:18:37;2.20;72.50
21944;DHT22;11136;48.778;9.126;2023-02-28T00:21:03;2.20;71.90
21944;DHT22;11136;48.778;9.126;2023-02-28T00:23:28;2.20;72.00
21944;DHT22;11136;48.778;9.126;2023-02-28T00:25:54;2.20;72.10
21944;DHT22;11136;48.778;9.126;2023-02-28T00:28:20;2.10;72.10
21944;DHT22;11136;48.778;9.126;2023-02-28T00:30:46;2.10;72.20
21944;DHT22;11136;48.778;9.126;2023-02-28T00:33:12;2.10;72.30
21944;DHT22;11136;48.778;9.126;2023-02-28T00:35:38;2.10;72.40
21944;DHT22;11136;48.778;9.126;2023-02-28T00:38:03;2.10;72.40
21944;DHT22;11136;48.778;9.126;2023-02-28T00:40:29;2.00;72.50
21944;DHT22;11136;48.778;9.126;2023-02-28T00:42:55;2.00;72.60
21944;DHT22;11136;48.778;9.126;2023-02-28T00:45:20;2.00;72.70
21944;DHT22;11136;48.778;9.126;2023-02-28T00:47:46;2.00;72.80
21944;DHT22;11136;48.778;9.126;2023-02-28T00:50:16;1.90;72.90
21944;DHT22;11136;48.778;9.126;2023-02-28T00:52:42;1.90;73.00
21944;DHT22;11136;48.778;9.126;2023-02-28T00:55:08;1.90;73.10
21944;DHT22;11136;48.778;9.126;2023-02-28T00:57:34;1.90;73.20
21944;DHT22;11136;48.778;9.126;2023-02-28T01:00:00;1.90;73.30
21944;DHT22;11136;48.778;9.126;2023-02-28T01:02:25;1.90;73.40
21944;DHT22;11136;48.778;9.126;2023-02-28T01:04:51;1.90;73.50
21944;DHT22;11136;48.778;9.126;2023-02-28T01:07:17;1.90;73.60
21944;DHT22;11136;48.778;9.126;2023-02-28T01:09:42;1.80;73.60
21944;DHT22;11136;48.778;9.126;2023-02-28T01:12:08;1.80;73.70
21944;DHT22;11136;48.778;9.126;2023-02-28T01:14:34;1.80;73.80
21944;DHT22;11136;48.778;9.126;2023-02-28T01:17:00;2.00;74.10
21944;DHT22;11136;48.778;9.126;2023-02-28T01:19:26;1.80;74.10
21944;DHT22;11136;48.778;9.126;2023-02-28T01:21:52;1.80;74.20
21944;DHT22;11136;48.778;9.126;2023-02-28T01:24:17;1.80;74.30
21944;DHT22;11136;48.778;9.126;2023-02-28T01:26:43;1.70;74.40
21944;DHT22;11136;48.778;9.126;2023-02-28T01:29:08;1.90;74.60
21944;DHT22;11136;48.778;9.126;2023-02-28T01:31:34;1.70;74.60
21944;DHT22;11136;48.778;9.126;2023-02-28T01:34:00;1.90;74.80
21944;DHT22;11136;48.778;9.126;2023-02-28T01:36:26;1.70;74.80
21944;DHT22;11136;48.778;9.126;2023-02-28T01:38:51;2.00;75.10
21944;DHT22;11136;48.778;9.126;2023-02-28T01:41:26;1.70;75.00
21944;DHT22;11136;48.778;9.126;2023-02-28T01:43:58;1.70;75.10
21944;DHT22;11136;48.778;9.126;2023-02-28T01:46:24;1.70;75.20
21944;DHT22;11136;48.778;9.126;2023-02-28T01:51:45;1.60;75.50
21944;DHT22;11136;48.778;9.126;2023-02-28T01:56:51;1.60;75.50
21944;DHT22;11136;48.778;9.126;2023-02-28T01:59:31;1.50;75.30
21944;DHT22;11136;48.778;9.126;2023-02-28T02:01:57;1.50;75.60
21944;DHT22;11136;48.778;9.126;2023-02-28T02:04:27;1.50;75.80
21944;DHT22;11136;48.778;9.126;2023-02-28T02:06:58;1.50;76.00
21944;DHT22;11136;48.778;9.126;2023-02-28T02:09:24;1.50;76.10
21944;DHT22;11136;48.778;9.126;2023-02-28T02:11:50;1.50;76.30
21944;DHT22;11136;48.778;9.126;2023-02-28T02:14:50;1.50;76.50
21944;DHT22;11136;48.778;9.126;2023-02-28T02:17:39;1.50;76.80
21944;DHT22;11136;48.778;9.126;2023-02-28T02:25:42;1.40;77.10
21944;DHT22;11136;48.778;9.126;2023-02-28T02:31:04;1.40;77.30
21944;DHT22;11136;48.778;9.126;2023-02-28T02:36:40;1.40;77.70
21944;DHT22;11136;48.778;9.126;2023-02-28T02:39:22;1.40;77.70
21944;DHT22;11136;48.778;9.126;2023-02-28T02:41:54;1.40;77.90
21944;DHT22;11136;48.778;9.126;2023-02-28T02:44:27;1.40;78.00
21944;DHT22;11136;48.778;9.126;2023-02-28T02:47:07;1.50;78.30
21944;DHT22;11136;48.778;9.126;2023-02-28T02:49:36;1.50;78.50
21944;DHT22;11136;48.778;9.126;2023-02-28T02:52:06;1.50;78.50
21944;DHT22;11136;48.778;9.126;2023-02-28T02:54:35;1.50;78.70
21944;DHT22;11136;48.778;9.126;2023-02-28T02:57:05;1.50;78.80
21944;DHT22;11136;48.778;9.126;2023-02-28T02:59:36;1.60;79.00
21944;DHT22;11136;48.778;9.126;2023-02-28T03:02:05;1.70;79.10
21944;DHT22;11136;48.778;9.126;2023-02-28T03:04:34;1.50;79.10
21944;DHT22;11136;48.778;9.126;2023-02-28T03:07:03;1.50;79.30
21944;DHT22;11136;48.778;9.126;2023-02-28T03:09:29;1.50;79.40
21944;DHT22;11136;48.778;9.126;2023-02-28T03:11:58;1.70;79.50
21944;DHT22;11136;48.778;9.126;2023-02-28T03:14:44;1.50;79.50
21944;DHT22;11136;48.778;9.126;2023-02-28T03:17:32;1.60;79.80
21944;DHT22;11136;48.778;9.126;2023-02-28T03:25:27;1.60;80.10
21944;DHT22;11136;48.778;9.126;2023-02-28T03:28:05;1.60;80.20
21944;DHT22;11136;48.778;9.126;2023-02-28T03:36:19;1.70;80.50
21944;DHT22;11136;48.778;9.126;2023-02-28T03:38:58;1.70;80.80
21944;DHT22;11136;48.778;9.126;2023-02-28T03:41:50;1.70;80.80
21944;DHT22;11136;48.778;9.126;2023-02-28T03:44:29;1.90;81.00
21944;DHT22;11136;48.778;9.126;2023-02-28T03:47:20;1.70;80.90
21944;DHT22;11136;48.778;9.126;2023-02-28T03:50:27;1.70;81.10
21944;DHT22;11136;48.778;9.126;2023-02-28T03:53:06;1.70;81.20
21944;DHT22;11136;48.778;9.126;2023-02-28T03:55:47;1.70;81.20
21944;DHT22;11136;48.778;9.126;2023-02-28T03:58:37;1.60;81.40
21944;DHT22;11136;48.778;9.126;2023-02-28T04:01:11;1.70;81.60
21944;DHT22;11136;48.778;9.126;2023-02-28T04:03:38;1.70;81.60
21944;DHT22;11136;48.778;9.126;2023-02-28T04:06:07;1.70;81.60
21944;DHT22;11136;48.778;9.126;2023-02-28T04:08:33;1.70;81.80
21944;DHT22;11136;48.778;9.126;2023-02-28T04:11:53;1.70;81.80
21944;DHT22;11136;48.778;9.126;2023-02-28T04:14:10;1.70;82.20
21944;DHT22;11136;48.778;9.126;2023-02-28T04:16:39;1.70;82.00
21944;DHT22;11136;48.778;9.126;2023-02-28T04:19:06;1.90;82.30
21944;DHT22;11136;48.778;9.126;2023-02-28T04:21:50;1.70;82.30
21944;DHT22;11136;48.778;9.126;2023-02-28T04:24:23;1.70;82.50
21944;DHT22;11136;48.778;9.126;2023-02-28T04:26:51;1.70;82.50
21944;DHT22;11136;48.778;9.126;2023-02-28T04:29:20;1.70;82.60
21944;DHT22;11136;48.778;9.126;2023-02-28T04:31:46;1.70;82.70
21944;DHT22;11136;48.778;9.126;2023-02-28T04:34:12;1.70;82.80
21944;DHT22;11136;48.778;9.126;2023-02-28T04:36:37;1.70;83.00
21944;DHT22;11136;48.778;9.126;2023-02-28T04:39:03;1.70;83.10
21944;DHT22;11136;48.778;9.126;2023-02-28T04:41:29;1.70;83.10
21944;DHT22;11136;48.778;9.126;2023-02-28T04:43:55;1.70;83.20
21944;DHT22;11136;48.778;9.126;2023-02-28T04:46:22;1.70;83.40
21944;DHT22;11136;48.778;9.126;2023-02-28T04:48:48;1.70;83.50
21944;DHT22;11136;48.778;9.126;2023-02-28T04:51:15;1.80;83.70
21944;DHT22;11136;48.778;9.126;2023-02-28T04:53:41;2.00;83.80
21944;DHT22;11136;48.778;9.126;2023-02-28T04:56:10;1.80;83.70
21944;DHT22;11136;48.778;9.126;2023-02-28T04:58:36;1.80;83.80
21944;DHT22;11136;48.778;9.126;2023-02-28T05:01:15;1.70;83.80
21944;DHT22;11136;48.778;9.126;2023-02-28T05:03:42;1.70;83.90
21944;DHT22;11136;48.778;9.126;2023-02-28T05:06:08;1.70;84.00
21944;DHT22;11136;48.778;9.126;2023-02-28T05:08:33;1.70;84.00
21944;DHT22;11136;48.778;9.126;2023-02-28T05:11:00;1.90;84.20
21944;DHT22;11136;48.778;9.126;2023-02-28T05:13:27;1.70;84.20
21944;DHT22;11136;48.778;9.126;2023-02-28T05:15:53;1.70;84.30
21944;DHT22;11136;48.778;9.126;2023-02-28T05:18:18;1.70;84.40
21944;DHT22;11136;48.778;9.126;2023-02-28T05:20:44;1.70;84.50
21944;DHT22;11136;48.778;9.126;2023-02-28T05:23:13;1.70;84.50
21944;DHT22;11136;48.778;9.126;2023-02-28T05:25:39;1.70;84.60
21944;DHT22;11136;48.778;9.126;2023-02-28T05:28:06;1.70;84.60
21944;DHT22;11136;48.778;9.126;2023-02-28T05:30:32;1.70;84.70
21944;DHT22;11136;48.778;9.126;2023-02-28T05:32:57;1.80;84.80
21944;DHT22;11136;48.778;9.126;2023-02-28T05:35:24;1.70;84.80
21944;DHT22;11136;48.778;9.126;2023-02-28T05:37:50;1.70;84.90
21944;DHT22;11136;48.778;9.126;2023-02-28T05:40:17;1.70;85.00
21944;DHT22;11136;48.778;9.126;2023-02-28T05:42:43;1.70;85.00
21944;DHT22;11136;48.778;9.126;2023-02-28T05:45:09;1.70;85.10
21944;DHT22;11136;48.778;9.126;2023-02-28T05:47:35;1.70;85.20
21944;DHT22;11136;48.778;9.126;2023-02-28T05:50:01;1.70;85.20
21944;DHT22;11136;48.778;9.126;2023-02-28T05:52:28;2.00;85.50
21944;DHT22;11136;48.778;9.126;2023-02-28T05:54:55;1.80;85.60
21944;DHT22;11136;48.778;9.126;2023-02-28T05:57:21;1.70;85.50
21944;DHT22;11136;48.778;9.126;2023-02-28T05:59:47;1.70;85.50
21944;DHT22;11136;48.778;9.126;2023-02-28T06:02:14;1.70;85.70
21944;DHT22;11136;48.778;9.126;2023-02-28T06:04:40;1.70;85.80
21944;DHT22;11136;48.778;9.126;2023-02-28T06:07:07;1.70;86.00
21944;DHT22;11136;48.778;9.126;2023-02-28T06:09:33;1.90;86.10
21944;DHT22;11136;48.778;9.126;2023-02-28T06:12:00;1.80;86.10
21944;DHT22;11136;48.778;9.126;2023-02-28T06:14:28;1.90;86.20
21944;DHT22;11136;48.778;9.126;2023-02-28T06:16:53;1.80;86.20
21944;DHT22;11136;48.778;9.126;2023-02-28T06:19:19;1.80;86.30
21944;DHT22;11136;48.778;9.126;2023-02-28T06:21:44;1.90;86.50
21944;DHT22;11136;48.778;9.126;2023-02-28T06:24:10;1.80;87.10
21944;DHT22;11136;48.778;9.126;2023-02-28T06:26:36;1.80;86.50
21944;DHT22;11136;48.778;9.126;2023-02-28T06:29:02;1.80;86.60
21944;DHT22;11136;48.778;9.126;2023-02-28T06:31:28;2.00;86.80
21944;DHT22;11136;48.778;9.126;2023-02-28T06:33:55;1.70;86.70
21944;DHT22;11136;48.778;9.126;2023-02-28T06:36:21;1.70;86.80
21944;DHT22;11136;48.778;9.126;2023-02-28T06:38:46;1.80;86.90
21944;DHT22;11136;48.778;9.126;2023-02-28T06:41:17;1.70;87.10
21944;DHT22;11136;48.778;9.126;2023-02-28T06:43:43;1.80;87.10
21944;DHT22;11136;48.778;9.126;2023-02-28T06:46:11;1.80;87.20
21944;DHT22;11136;48.778;9.126;2023-02-28T06:48:37;1.80;87.30
21944;DHT22;11136;48.778;9.126;2023-02-28T06:51:05;1.80;88.10
21944;DHT22;11136;48.778;9.126;2023-02-28T06:53:31;1.80;87.40
21944;DHT22;11136;48.778;9.126;2023-02-28T06:55:57;1.80;87.40
21944;DHT22;11136;48.778;9.126;2023-02-28T06:58:22;1.80;87.40
21944;DHT22;11136;48.778;9.126;2023-02-28T07:00:51;1.80;87.50
21944;DHT22;11136;48.778;9.126;2023-02-28T07:03:17;1.80;87.50
21944;DHT22;11136;48.778;9.126;2023-02-28T07:05:44;2.00;87.60
21944;DHT22;11136;48.778;9.126;2023-02-28T07:08:09;1.80;87.50
21944;DHT22;11136;48.778;9.126;2023-02-28T07:10:38;1.80;87.60
21944;DHT22;11136;48.778;9.126;2023-02-28T07:13:05;1.90;87.70
21944;DHT22;11136;48.778;9.126;2023-02-28T07:15:30;1.80;87.60
21944;DHT22;11136;48.778;9.126;2023-02-28T07:17:56;1.80;87.70
21944;DHT22;11136;48.778;9.126;2023-02-28T07:20:22;1.90;87.80
21944;DHT22;11136;48.778;9.126;2023-02-28T07:22:48;1.90;87.80
21944;DHT22;11136;48.778;9.126;2023-02-28T07:25:22;1.90;87.80
21944;DHT22;11136;48.778;9.126;2023-02-28T07:27:47;1.90;87.80
21944;DHT22;11136;48.778;9.126;2023-02-28T07:30:13;1.90;87.80
21944;DHT22;11136;48.778;9.126;2023-02-28T07:32:39;2.00;88.00
21944;DHT22;11136;48.778;9.126;2023-02-28T07:35:05;2.00;88.00
21944;DHT22;11136;48.778;9.126;2023-02-28T07:37:30;2.00;88.00
21944;DHT22;11136;48.778;9.126;2023-02-28T07:40:04;2.20;88.20
21944;DHT22;11136;48.778;9.126;2023-02-28T07:42:34;2.00;88.10
21944;DHT22;11136;48.778;9.126;2023-02-28T07:45:00;2.00;88.00
21944;DHT22;11136;48.778;9.126;2023-02-28T07:47:26;2.10;88.10
21944;DHT22;11136;48.778;9.126;2023-02-28T07:49:51;2.10;88.10
21944;DHT22;11136;48.778;9.126;2023-02-28T07:52:18;2.10;88.20
21944;DHT22;11136;48.778;9.126;2023-02-28T07:54:43;2.10;88.10
21944;DHT22;11136;48.778;9.126;2023-02-28T07:57:09;2.10;88.20
21944;DHT22;11136;48.778;9.126;2023-02-28T07:59:34;2.10;88.20
21944;DHT22;11136;48.778;9.126;2023-02-28T08:02:00;2.10;88.30
21944;DHT22;11136;48.778;9.126;2023-02-28T08:04:26;2.20;88.30
21944;DHT22;11136;48.778;9.126;2023-02-28T08:06:52;2.20;88.30
21944;DHT22;11136;48.778;9.126;2023-02-28T08:09:18;2.20;88.40
21944;DHT22;11136;48.778;9.126;2023-02-28T08:11:44;2.20;88.40
21944;DHT22;11136;48.778;9.126;2023-02-28T08:14:10;2.20;88.40
21944;DHT22;11136;48.778;9.126;2023-02-28T08:16:35;2.40;88.60
21944;DHT22;11136;48.778;9.126;2023-02-28T08:19:01;2.30;88.50
21944;DHT22;11136;48.778;9.126;2023-02-28T08:21:27;2.30;88.40
21944;DHT22;11136;48.778;9.126;2023-02-28T08:23:52;2.30;88.30
21944;DHT22;11136;48.778;9.126;2023-02-28T08:26:19;2.30;88.40
21944;DHT22;11136;48.778;9.126;2023-02-28T08:28:44;2.30;88.40
21944;DHT22;11136;48.778;9.126;2023-02-28T08:31:12;2.40;88.50
21944;DHT22;11136;48.778;9.126;2023-02-28T08:33:39;2.40;88.40
21944;DHT22;11136;48.778;9.126;2023-02-28T08:36:06;2.40;88.40
21944;DHT22;11136;48.778;9.126;2023-02-28T08:38:32;2.40;88.40
21944;DHT22;11136;48.778;9.126;2023-02-28T08:41:02;2.40;88.40
21944;DHT22;11136;48.778;9.126;2023-02-28T08:43:28;2.50;88.40
21944;DHT22;11136;48.778;9.126;2023-02-28T08:45:55;2.50;88.20
21944;DHT22;11136;48.778;9.126;2023-02-28T08:48:23;2.50;88.10
21944;DHT22;11136;48.778;9.126;2023-02-28T08:51:00;2.50;88.10
21944;DHT22;11136;48.778;9.126;2023-02-28T08:53:26;2.50;88.00
21944;DHT22;11136;48.778;9.126;2023-02-28T08:56:03;2.60;88.10
21944;DHT22;11136;48.778;9.126;2023-02-28T08:58:30;2.60;88.00
21944;DHT22;11136;48.778;9.126;2023-02-28T09:00:56;2.60;87.90
21944;DHT22;11136;48.778;9.126;2023-02-28T09:03:22;2.60;87.90
21944;DHT22;11136;48.778;9.126;2023-02-28T09:06:00;2.60;87.60
21944;DHT22;11136;48.778;9.126;2023-02-28T09:08:27;2.60;87.40
21944;DHT22;11136;48.778;9.126;2023-02-28T09:10:53;2.60;87.30
21944;DHT22;11136;48.778;9.126;2023-02-28T09:13:21;2.60;87.30
21944;DHT22;11136;48.778;9.126;2023-02-28T09:15:47;2.60;87.30
21944;DHT22;11136;48.778;9.126;2023-02-28T09:18:12;2.80;87.40
21944;DHT22;11136;48.778;9.126;2023-02-28T09:20:39;2.60;87.20
21944;DHT22;11136;48.778;9.126;2023-02-28T09:23:06;2.70;87.30
21944;DHT22;11136;48.778;9.126;2023-02-28T09:25:32;2.70;87.10
21944;DHT22;11136;48.778;9.126;2023-02-28T09:27:59;2.70;87.10
21944;DHT22;11136;48.778;9.126;2023-02-28T09:30:25;2.70;87.00
21944;DHT22;11136;48.778;9.126;2023-02-28T09:32:51;2.80;86.90
21944;DHT22;11136;48.778;9.126;2023-02-28T09:35:21;2.80;86.70
21944;DHT22;11136;48.778;9.126;2023-02-28T09:37:50;2.80;86.70
21944;DHT22;11136;48.778;9.126;2023-02-28T09:40:17;2.80;86.70
21944;DHT22;11136;48.778;9.126;2023-02-28T09:42:46;2.80;86.70
21944;DHT22;11136;48.778;9.126;2023-02-28T09:45:26;2.80;86.70
21944;DHT22;11136;48.778;9.126;2023-02-28T09:47:54;2.90;86.70
21944;DHT22;11136;48.778;9.126;2023-02-28T09:50:30;3.10;86.80
21944;DHT22;11136;48.778;9.126;2023-02-28T09:52:59;2.90;86.50
21944;DHT22;11136;48.778;9.126;2023-02-28T09:55:30;2.90;86.50
21944;DHT22;11136;48.778;9.126;2023-02-28T09:57:59;2.90;86.50
21944;DHT22;11136;48.778;9.126;2023-02-28T10:00:30;3.00;86.60
21944;DHT22;11136;48.778;9.126;2023-02-28T10:03:20;3.00;86.50
21944;DHT22;11136;48.778;9.126;2023-02-28T10:05:51;3.10;86.60
21944;DHT22;11136;48.778;9.126;2023-02-28T10:08:52;3.10;86.50
21944;DHT22;11136;48.778;9.126;2023-02-28T10:11:22;3.20;86.50
21944;DHT22;11136;48.778;9.126;2023-02-28T10:17:01;3.30;86.30
21944;DHT22;11136;48.778;9.126;2023-02-28T10:19:13;3.30;86.20
21944;DHT22;11136;48.778;9.126;2023-02-28T10:21:50;3.30;86.00
21944;DHT22;11136;48.778;9.126;2023-02-28T10:24:27;3.30;85.90
21944;DHT22;11136;48.778;9.126;2023-02-28T10:27:00;3.30;86.00
21944;DHT22;11136;48.778;9.126;2023-02-28T10:29:28;3.40;86.00
21944;DHT22;11136;48.778;9.126;2023-02-28T10:31:56;3.40;86.00
21944;DHT22;11136;48.778;9.126;2023-02-28T10:34:23;3.50;86.10
21944;DHT22;11136;48.778;9.126;2023-02-28T10:36:50;3.80;86.30
21944;DHT22;11136;48.778;9.126;2023-02-28T10:39:43;3.60;86.10
21944;DHT22;11136;48.778;9.126;2023-02-28T10:42:29;3.70;86.10
21944;DHT22;11136;48.778;9.126;2023-02-28T10:45:15;3.80;86.10
21944;DHT22;11136;48.778;9.126;2023-02-28T10:50:50;3.90;85.70
21944;DHT22;11136;48.778;9.126;2023-02-28T10:59:03;4.10;85.40
21944;DHT22;11136;48.778;9.126;2023-02-28T11:03:58;4.20;85.40
21944;DHT22;11136;48.778;9.126;2023-02-28T11:06:30;4.30;85.20
21944;DHT22;11136;48.778;9.126;2023-02-28T11:09:03;4.30;84.80
21944;DHT22;11136;48.778;9.126;2023-02-28T11:11:30;4.30;84.60
21944;DHT22;11136;48.778;9.126;2023-02-28T11:14:06;4.40;84.70
21944;DHT22;11136;48.778;9.126;2023-02-28T11:16:42;4.50;85.00
21944;DHT22;11136;48.778;9.126;2023-02-28T11:19:24;4.60;85.10
21944;DHT22;11136;48.778;9.126;2023-02-28T11:22:00;4.70;84.50
21944;DHT22;11136;48.778;9.126;2023-02-28T11:24:42;4.80;84.50
21944;DHT22;11136;48.778;9.126;2023-02-28T11:29:59;5.00;84.40
21944;DHT22;11136;48.778;9.126;2023-02-28T11:32:27;5.10;84.30
21944;DHT22;11136;48.778;9.126;2023-02-28T11:35:10;5.40;84.40
21944;DHT22;11136;48.778;9.126;2023-02-28T11:37:39;5.40;84.30
21944;DHT22;11136;48.778;9.126;2023-02-28T11:40:16;5.50;83.90
21944;DHT22;11136;48.778;9.126;2023-02-28T11:48:58;5.80;82.80
21944;DHT22;11136;48.778;9.126;2023-02-28T11:51:34;5.90;82.60
21944;DHT22;11136;48.778;9.126;2023-02-28T11:54:23;5.90;82.50
21944;DHT22;11136;48.778;9.126;2023-02-28T12:00:03;6.00;81.90
21944;DHT22;11136;48.778;9.126;2023-02-28T12:02:51;6.10;82.20
21944;DHT22;11136;48.778;9.126;2023-02-28T12:05:44;6.30;82.10
21944;DHT22;11136;48.778;9.126;2023-02-28T12:20:24;7.00;81.60
21944;DHT22;11136;48.778;9.126;2023-02-28T12:23:21;7.20;81.20
21944;DHT22;11136;48.778;9.126;2023-02-28T12:28:46;7.50;80.60
21944;DHT22;11136;48.778;9.126;2023-02-28T12:31:18;7.60;80.60
21944;DHT22;11136;48.778;9.126;2023-02-28T12:33:51;7.70;80.30
21944;DHT22;11136;48.778;9.126;2023-02-28T12:36:19;7.80;79.80
21944;DHT22;11136;48.778;9.126;2023-02-28T12:38:54;7.90;79.70
21944;DHT22;11136;48.778;9.126;2023-02-28T12:41:42;8.00;79.10
21944;DHT22;11136;48.778;9.126;2023-02-28T12:44:25;8.10;78.40
21944;DHT22;11136;48.778;9.126;2023-02-28T12:46:55;8.20;78.50
21944;DHT22;11136;48.778;9.126;2023-02-28T12:52:03;8.50;77.90
21944;DHT22;11136;48.778;9.126;2023-02-28T12:54:48;8.80;78.10
21944;DHT22;11136;48.778;9.126;2023-02-28T12:57:40;8.80;77.30
21944;DHT22;11136;48.778;9.126;2023-02-28T13:00:18;8.90;76.50
21944;DHT22;11136;48.778;9.126;2023-02-28T13:03:01;9.10;76.50
21944;DHT22;11136;48.778;9.126;2023-02-28T13:05:46;9.20;76.10
21944;DHT22;11136;48.778;9.126;2023-02-28T13:11:32;9.40;75.10
21944;DHT22;11136;48.778;9.126;2023-02-28T13:14:01;9.60;75.20
21944;DHT22;11136;48.778;9.126;2023-02-28T13:16:27;9.70;75.30
21944;DHT22;11136;48.778;9.126;2023-02-28T13:19:08;9.80;75.00
21944;DHT22;11136;48.778;9.126;2023-02-28T13:21:43;10.10;74.30
21944;DHT22;11136;48.778;9.126;2023-02-28T13:24:11;10.20;74.10
21944;DHT22;11136;48.778;9.126;2023-02-28T13:34:32;12.00;73.40
21944;DHT22;11136;48.778;9.126;2023-02-28T13:48:02;14.80;69.30
21944;DHT22;11136;48.778;9.126;2023-02-28T13:50:37;15.20;67.00
21944;DHT22;11136;48.778;9.126;2023-02-28T13:56:04;15.90;64.80
21944;DHT22;11136;48.778;9.126;2023-02-28T13:58:39;16.20;63.00
21944;DHT22;11136;48.778;9.126;2023-02-28T14:03:44;16.40;61.60
21944;DHT22;11136;48.778;9.126;2023-02-28T14:09:03;16.50;59.00
21944;DHT22;11136;48.778;9.126;2023-02-28T14:11:42;16.30;57.80
21944;DHT22;11136;48.778;9.126;2023-02-28T14:14:53;16.30;57.50
21944;DHT22;11136;48.778;9.126;2023-02-28T14:16:55;16.30;57.60
21944;DHT22;11136;48.778;9.126;2023-02-28T14:19:26;16.20;57.50
21944;DHT22;11136;48.778;9.126;2023-02-28T14:24:34;15.90;56.40
21944;DHT22;11136;48.778;9.126;2023-02-28T14:27:37;15.80;56.40
21944;DHT22;11136;48.778;9.126;2023-02-28T14:30:29;15.60;55.90
21944;DHT22;11136;48.778;9.126;2023-02-28T14:35:58;15.30;56.30
21944;DHT22;11136;48.778;9.126;2023-02-28T14:38:59;15.20;56.00
21944;DHT22;11136;48.778;9.126;2023-02-28T14:41:34;15.00;56.10
21944;DHT22;11136;48.778;9.126;2023-02-28T14:44:12;14.90;56.40
21944;DHT22;11136;48.778;9.126;2023-02-28T14:46:40;14.90;56.60
21944;DHT22;11136;48.778;9.126;2023-02-28T14:49:15;14.80;56.20
21944;DHT22;11136;48.778;9.126;2023-02-28T14:51:42;14.70;55.90
21944;DHT22;11136;48.778;9.126;2023-02-28T14:54:16;14.60;56.00
21944;DHT22;11136;48.778;9.126;2023-02-28T14:56:49;14.60;55.80
21944;DHT22;11136;48.778;9.126;2023-02-28T14:59:35;14.50;56.00
21944;DHT22;11136;48.778;9.126;2023-02-28T15:02:22;14.30;55.60
21944;DHT22;11136;48.778;9.126;2023-02-28T15:05:00;14.20;55.80
21944;DHT22;11136;48.778;9.126;2023-02-28T15:07:26;14.10;55.90
21944;DHT22;11136;48.778;9.126;2023-02-28T15:12:37;13.80;55.30
21944;DHT22;11136;48.778;9.126;2023-02-28T15:15:03;13.60;55.70
21944;DHT22;11136;48.778;9.126;2023-02-28T15:17:29;13.40;55.80
21944;DHT22;11136;48.778;9.126;2023-02-28T15:19:56;13.20;55.90
21944;DHT22;11136;48.778;9.126;2023-02-28T15:22:35;13.10;56.10
21944;DHT22;11136;48.778;9.126;2023-02-28T15:25:02;12.90;56.20
21944;DHT22;11136;48.778;9.126;2023-02-28T15:27:32;12.80;56.40
21944;DHT22;11136;48.778;9.126;2023-02-28T15:30:00;12.60;56.40
21944;DHT22;11136;48.778;9.126;2023-02-28T15:32:32;12.50;56.50
21944;DHT22;11136;48.778;9.126;2023-02-28T15:35:16;12.30;56.60
21944;DHT22;11136;48.778;9.126;2023-02-28T15:37:48;12.10;56.70
21944;DHT22;11136;48.778;9.126;2023-02-28T15:40:30;11.90;56.90
21944;DHT22;11136;48.778;9.126;2023-02-28T15:43:06;11.70;57.00
21944;DHT22;11136;48.778;9.126;2023-02-28T15:45:46;11.60;57.20
21944;DHT22;11136;48.778;9.126;2023-02-28T15:48:24;11.40;57.40
21944;DHT22;11136;48.778;9.126;2023-02-28T15:50:53;11.20;57.60
21944;DHT22;11136;48.778;9.126;2023-02-28T15:53:26;11.00;57.80
21944;DHT22;11136;48.778;9.126;2023-02-28T15:55:56;10.90;58.00
21944;DHT22;11136;48.778;9.126;2023-02-28T15:58:24;10.70;58.10
21944;DHT22;11136;48.778;9.126;2023-02-28T16:01:01;10.60;58.30
21944;DHT22;11136;48.778;9.126;2023-02-28T16:03:39;10.50;58.50
21944;DHT22;11136;48.778;9.126;2023-02-28T16:08:41;10.30;58.90
21944;DHT22;11136;48.778;9.126;2023-02-28T16:11:09;10.20;59.00
21944;DHT22;11136;48.778;9.126;2023-02-28T16:13:35;10.20;59.20
21944;DHT22;11136;48.778;9.126;2023-02-28T16:16:01;10.00;59.40
21944;DHT22;11136;48.778;9.126;2023-02-28T16:18:27;9.90;59.50
21944;DHT22;11136;48.778;9.126;2023-02-28T16:20:52;9.90;59.80
21944;DHT22;11136;48.778;9.126;2023-02-28T16:23:19;9.80;59.90
21944;DHT22;11136;48.778;9.126;2023-02-28T16:25:45;9.70;60.00
21944;DHT22;11136;48.778;9.126;2023-02-28T16:28:24;9.60;60.10
21944;DHT22;11136;48.778;9.126;2023-02-28T16:30:52;9.50;60.30
21944;DHT22;11136;48.778;9.126;2023-02-28T16:33:17;9.50;60.40
21944;DHT22;11136;48.778;9.126;2023-02-28T16:35:43;9.40;60.60
21944;DHT22;11136;48.778;9.126;2023-02-28T16:38:09;9.30;60.80
21944;DHT22;11136;48.778;9.126;2023-02-28T16:40:36;9.20;60.90
21944;DHT22;11136;48.778;9.126;2023-02-28T16:43:05;9.10;61.10
21944;DHT22;11136;48.778;9.126;2023-02-28T16:45:32;9.00;61.30
21944;DHT22;11136;48.778;9.126;2023-02-28T16:47:59;9.00;61.50
21944;DHT22;11136;48.778;9.126;2023-02-28T16:50:29;8.90;61.60
21944;DHT22;11136;48.778;9.126;2023-02-28T16:52:55;8.80;61.80
21944;DHT22;11136;48.778;9.126;2023-02-28T16:55:25;8.70;62.00
21944;DHT22;11136;48.778;9.126;2023-02-28T16:57:53;8.60;62.20
21944;DHT22;11136;48.778;9.126;2023-02-28T17:00:20;8.30;62.20
21944;DHT22;11136;48.778;9.126;2023-02-28T17:02:45;8.50;62.50
21944;DHT22;11136;48.778;9.126;2023-02-28T17:05:12;8.50;62.80
21944;DHT22;11136;48.778;9.126;2023-02-28T17:07:38;8.40;62.90
21944;DHT22;11136;48.778;9.126;2023-02-28T17:10:33;8.40;63.00
21944;DHT22;11136;48.778;9.126;2023-02-28T17:12:59;8.30;63.20
21944;DHT22;11136;48.778;9.126;2023-02-28T17:15:25;8.20;63.30
21944;DHT22;11136;48.778;9.126;2023-02-28T17:17:50;8.10;63.40
21944;DHT22;11136;48.778;9.126;2023-02-28T17:20:19;8.10;63.60
21944;DHT22;11136;48.778;9.126;2023-02-28T17:22:48;8.00;63.70
21944;DHT22;11136;48.778;9.126;2023-02-28T17:25:14;8.00;63.90
21944;DHT22;11136;48.778;9.126;2023-02-28T17:27:40;7.90;64.00
21944;DHT22;11136;48.778;9.126;2023-02-28T17:30:19;7.90;64.20
21944;DHT22;11136;48.778;9.126;2023-02-28T17:32:45;7.80;64.30
21944;DHT22;11136;48.778;9.126;2023-02-28T17:35:11;7.80;64.40
21944;DHT22;11136;48.778;9.126;2023-02-28T17:37:37;7.70;64.50
21944;DHT22;11136;48.778;9.126;2023-02-28T17:40:03;7.70;64.70
21944;DHT22;11136;48.778;9.126;2023-02-28T17:42:29;7.60;64.90
21944;DHT22;11136;48.778;9.126;2023-02-28T17:44:54;7.60;65.00
21944;DHT22;11136;48.778;9.126;2023-02-28T17:47:20;7.60;65.20
21944;DHT22;11136;48.778;9.126;2023-02-28T17:49:45;7.50;65.40
21944;DHT22;11136;48.778;9.126;2023-02-28T17:52:11;7.40;65.60
21944;DHT22;11136;48.778;9.126;2023-02-28T17:54:36;7.40;65.80
21944;DHT22;11136;48.778;9.126;2023-02-28T17:57:02;7.40;66.00
21944;DHT22;11136;48.778;9.126;2023-02-28T17:59:28;7.30;66.20